Time;durP1;ratioP1;P1;durP2;ratioP2;P2;SDS_P1;SDS_P2;PMS_P1;PMS_P2;Temp;Humidity;BMP_temperature;BMP_pressure;BME280_temperature;BME280_humidity;BME280_pressure;Samples;Min_cycle;Max_cycle;Signal;HPM_P1;HPM_P2
2021/08/28 00:01:01;;;;;;;24.85;10.65;;;14.80;99.90;;;;;;5055099;28;20036;-83
2021/08/28 00:03:26;;;;;;;18.73;9.77;;;14.80;99.90;;;;;;5053775;28;20025;-85
2021/08/28 00:05:53;;;;;;;19.23;10.30;;;14.80;99.90;;;;;;5054793;28;20044;-83
2021/08/28 00:08:19;;;;;;;17.10;9.85;;;14.80;99.90;;;;;;5040177;28;20120;-82
2021/08/28 00:10:45;;;;;;;20.35;9.07;;;14.80;99.90;;;;;;5051648;28;20155;-84
2021/08/28 00:13:12;;;;;;;17.65;9.13;;;14.70;99.90;;;;;;5048722;28;20083;-83
2021/08/28 00:15:37;;;;;;;15.52;8.48;;;14.80;99.90;;;;;;5043756;28;20029;-84
2021/08/28 00:18:03;;;;;;;21.20;9.30;;;14.70;99.90;;;;;;5054718;28;20028;-85
2021/08/28 00:20:29;;;;;;;12.95;8.65;;;14.80;99.90;;;;;;5054657;28;20025;-83
2021/08/28 00:22:54;;;;;;;20.27;9.35;;;14.80;99.90;;;;;;5054685;28;20389;-83
2021/08/28 00:25:20;;;;;;;17.25;9.48;;;14.70;99.90;;;;;;5050055;28;20021;-83
2021/08/28 00:27:46;;;;;;;18.33;10.27;;;14.70;99.90;;;;;;5034509;28;20540;-83
2021/08/28 00:30:12;;;;;;;15.27;9.18;;;14.70;99.90;;;;;;5034528;28;20409;-83
2021/08/28 00:32:38;;;;;;;19.02;10.38;;;14.70;99.90;;;;;;5033228;28;20030;-83
2021/08/28 00:35:05;;;;;;;15.73;9.15;;;14.70;99.90;;;;;;5034261;28;20029;-83
2021/08/28 00:37:31;;;;;;;18.48;9.90;;;14.70;99.90;;;;;;5053161;28;20025;-83
2021/08/28 00:39:57;;;;;;;14.07;9.25;;;14.70;99.90;;;;;;5053214;28;20032;-83
2021/08/28 00:42:23;;;;;;;19.15;10.00;;;14.60;99.90;;;;;;5054230;28;20033;-83
2021/08/28 00:44:48;;;;;;;19.95;9.95;;;14.60;99.90;;;;;;5054018;28;20024;-83
2021/08/28 00:47:21;;;;;;;24.52;9.15;;;14.60;99.90;;;;;;5039930;28;20029;-83
2021/08/28 00:49:48;;;;;;;18.85;9.35;;;14.70;99.90;;;;;;5034239;28;20025;-84
2021/08/28 00:52:16;;;;;;;22.30;9.45;;;14.70;99.90;;;;;;5034642;28;20449;-83
2021/08/28 00:54:42;;;;;;;22.77;9.48;;;14.70;99.90;;;;;;5033963;28;20400;-83
2021/08/28 00:57:08;;;;;;;25.30;10.52;;;14.70;99.90;;;;;;5043981;28;20017;-83
2021/08/28 00:59:34;;;;;;;18.73;8.95;;;14.70;99.90;;;;;;5052642;28;20033;-84
2021/08/28 01:02:00;;;;;;;26.30;9.57;;;14.70;99.90;;;;;;5052705;28;20029;-83
2021/08/28 01:04:28;;;;;;;20.63;9.20;;;14.80;99.90;;;;;;5053658;28;20385;-83
2021/08/28 01:07:04;;;;;;;23.27;9.60;;;14.80;99.90;;;;;;5046372;28;20052;-83
2021/08/28 01:09:33;;;;;;;22.70;9.65;;;14.80;99.90;;;;;;5032463;28;20108;-83
2021/08/28 01:12:05;;;;;;;24.15;9.68;;;14.90;99.90;;;;;;5032201;28;20363;-83
2021/08/28 01:14:32;;;;;;;24.70;9.35;;;14.80;99.90;;;;;;5033462;28;20031;-84
2021/08/28 01:17:09;;;;;;;18.92;9.48;;;14.80;99.90;;;;;;5036611;28;20023;-83
2021/08/28 01:19:43;;;;;;;25.15;8.10;;;14.80;99.90;;;;;;5052371;28;20408;-83
2021/08/28 01:22:12;;;;;;;15.77;9.20;;;14.80;99.90;;;;;;5053523;28;20545;-82
2021/08/28 01:24:40;;;;;;;23.52;9.27;;;14.80;99.90;;;;;;5053267;28;20031;-83
2021/08/28 01:27:43;;;;;;;20.90;9.70;;;14.80;99.90;;;;;;5051550;28;20029;-83
2021/08/28 01:30:10;;;;;;;24.50;8.75;;;14.80;99.90;;;;;;5037855;28;20068;-82
2021/08/28 01:32:37;;;;;;;20.23;9.50;;;14.80;99.90;;;;;;5032075;28;20026;-83
2021/08/28 01:35:04;;;;;;;23.02;9.50;;;14.80;99.90;;;;;;5031818;28;20029;-82
2021/08/28 01:37:30;;;;;;;19.52;9.07;;;14.80;99.90;;;;;;5034572;28;20033;-83
2021/08/28 01:39:58;;;;;;;16.60;8.13;;;14.80;99.90;;;;;;5053141;28;20447;-82
2021/08/28 01:42:29;;;;;;;17.27;8.32;;;14.80;99.90;;;;;;5053178;28;20021;-82
2021/08/28 01:44:56;;;;;;;24.10;9.00;;;14.80;99.90;;;;;;5052925;28;20126;-82
2021/08/28 01:47:23;;;;;;;22.88;8.85;;;14.80;99.90;;;;;;5052633;28;20031;-82
2021/08/28 01:49:50;;;;;;;17.85;7.65;;;14.90;99.90;;;;;;5035535;28;20036;-83
2021/08/28 01:52:17;;;;;;;20.80;9.35;;;14.90;99.90;;;;;;5033033;28;20695;-83
2021/08/28 01:54:44;;;;;;;15.43;8.50;;;14.90;99.90;;;;;;5032724;28;20414;-83
2021/08/28 01:57:10;;;;;;;22.58;9.02;;;14.80;99.90;;;;;;5032800;28;20458;-83
2021/08/28 01:59:35;;;;;;;15.98;7.70;;;14.90;99.90;;;;;;5045921;28;20108;-82
2021/08/28 02:02:02;;;;;;;17.98;8.13;;;14.90;99.90;;;;;;5052828;28;20104;-83
2021/08/28 02:04:28;;;;;;;18.33;8.07;;;14.80;99.90;;;;;;5052379;28;20035;-82
2021/08/28 02:07:05;;;;;;;26.70;9.85;;;14.80;99.90;;;;;;5051311;28;20025;-82
2021/08/28 02:09:42;;;;;;;20.52;8.80;;;14.80;99.90;;;;;;5041378;28;20032;-82
2021/08/28 02:12:15;;;;;;;16.63;7.45;;;14.80;99.90;;;;;;5032714;28;20030;-82
2021/08/28 02:15:19;;;;;;;21.90;9.07;;;14.90;99.90;;;;;;5031207;28;20018;-83
2021/08/28 02:17:48;;;;;;;;;;;14.80;99.90;;;;;;5032637;28;20268;-83
2021/08/28 02:20:16;;;;;;;16.92;8.15;;;14.80;99.90;;;;;;5044967;28;20326;-82
2021/08/28 02:22:47;;;;;;;20.83;8.40;;;14.90;99.90;;;;;;5052363;28;20536;-81
2021/08/28 02:25:33;;;;;;;18.40;7.75;;;14.80;99.90;;;;;;5050848;28;20040;-83
2021/08/28 02:28:08;;;;;;;15.18;8.13;;;14.80;99.90;;;;;;5052315;28;20550;-82
2021/08/28 02:30:34;;;;;;;23.27;8.63;;;14.80;99.90;;;;;;5050692;28;20086;-82
2021/08/28 02:33:04;;;;;;;18.65;7.95;;;14.80;99.90;;;;;;5052234;28;20025;-83
2021/08/28 02:35:32;;;;;;;16.15;7.13;;;14.80;99.90;;;;;;5052204;28;20500;-83
2021/08/28 02:37:59;;;;;;;16.65;7.25;;;14.90;99.90;;;;;;5050691;28;20125;-82
2021/08/28 02:40:26;;;;;;;16.98;6.35;;;14.80;99.90;;;;;;5042151;28;20567;-83
2021/08/28 02:42:54;;;;;;;17.98;7.35;;;14.80;99.90;;;;;;5032165;28;20037;-83
2021/08/28 02:45:23;;;;;;;14.50;7.00;;;14.80;99.90;;;;;;5030665;28;20030;-83
2021/08/28 02:47:50;;;;;;;19.38;6.63;;;14.80;99.90;;;;;;5032017;28;20029;-83
2021/08/28 02:50:19;;;;;;;16.33;7.00;;;14.80;99.90;;;;;;5034791;28;20039;-84
2021/08/28 02:52:48;;;;;;;15.50;7.40;;;14.60;99.90;;;;;;5051745;28;20045;-84
2021/08/28 02:55:15;;;;;;;21.10;7.65;;;14.80;99.90;;;;;;5050669;28;20036;-84
2021/08/28 02:57:45;;;;;;;13.10;5.97;;;14.80;99.90;;;;;;5050570;28;20076;-84
2021/08/28 03:00:12;;;;;;;16.52;7.15;;;14.80;99.90;;;;;;5049865;28;20024;-83
2021/08/28 03:02:38;;;;;;;17.92;6.07;;;14.80;99.90;;;;;;5030662;28;20371;-83
2021/08/28 03:05:06;;;;;;;15.63;6.25;;;14.70;99.90;;;;;;5031596;28;20030;-84
2021/08/28 03:07:33;;;;;;;20.55;6.55;;;14.70;99.90;;;;;;5031750;28;20026;-82
2021/08/28 03:10:01;;;;;;;16.92;6.95;;;14.60;99.90;;;;;;5031353;28;20033;-83
2021/08/28 03:12:27;;;;;;;15.70;6.60;;;14.60;99.90;;;;;;5034547;28;20033;-83
2021/08/28 03:14:52;;;;;;;33.17;7.43;;;14.60;99.90;;;;;;5031514;28;20025;-83
2021/08/28 03:17:19;;;;;;;23.35;7.07;;;14.60;99.90;;;;;;5031724;28;20017;-84
2021/08/28 03:19:47;;;;;;;12.20;5.72;;;14.50;99.90;;;;;;5031717;28;20025;-83
2021/08/28 03:22:17;;;;;;;13.95;6.25;;;14.50;99.90;;;;;;5043082;28;20444;-82
2021/08/28 03:24:46;;;;;;;15.75;6.45;;;14.50;99.90;;;;;;5051278;28;20035;-84
2021/08/28 03:27:14;;;;;;;11.82;5.88;;;14.50;99.90;;;;;;5051584;28;20080;-84
2021/08/28 03:29:41;;;;;;;15.93;6.65;;;14.50;99.90;;;;;;5051476;28;20099;-84
2021/08/28 03:32:07;;;;;;;16.75;6.13;;;14.50;99.90;;;;;;5042042;28;20030;-84
2021/08/28 03:34:34;;;;;;;11.63;6.05;;;14.50;99.90;;;;;;5030202;28;20581;-84
2021/08/28 03:37:01;;;;;;;26.08;6.93;;;14.50;99.90;;;;;;5031426;28;20034;-83
2021/08/28 03:39:27;;;;;;;9.43;5.15;;;14.40;99.90;;;;;;5031581;28;20510;-83
2021/08/28 03:41:53;;;;;;;14.75;7.18;;;14.30;99.90;;;;;;5034559;28;20044;-83
2021/08/28 03:44:18;;;;;;;17.90;6.43;;;14.30;99.90;;;;;;5051265;28;20021;-84
2021/08/28 03:46:46;;;;;;;13.55;6.43;;;14.30;99.90;;;;;;5051393;28;20021;-83
2021/08/28 03:49:12;;;;;;;19.90;6.68;;;14.30;99.90;;;;;;5051182;28;20033;-83
2021/08/28 03:51:38;;;;;;;15.30;6.40;;;14.30;99.90;;;;;;5051326;28;20029;-84
2021/08/28 03:54:04;;;;;;;12.52;5.32;;;14.30;99.90;;;;;;5032503;28;20076;-84
2021/08/28 03:56:29;;;;;;;13.95;6.05;;;14.20;99.90;;;;;;5030083;28;20029;-84
2021/08/28 03:58:55;;;;;;;16.23;5.55;;;14.20;99.90;;;;;;5031431;28;20026;-84
2021/08/28 04:01:21;;;;;;;16.85;6.35;;;14.20;99.90;;;;;;5031435;28;20029;-83
2021/08/28 04:03:47;;;;;;;36.92;7.53;;;14.20;99.90;;;;;;5044059;28;20029;-83
2021/08/28 04:06:13;;;;;;;17.67;6.50;;;14.20;99.90;;;;;;5051079;28;20048;-83
2021/08/28 04:08:38;;;;;;;16.95;5.70;;;14.10;99.90;;;;;;5051179;28;20083;-82
2021/08/28 04:11:04;;;;;;;14.00;6.15;;;14.10;99.90;;;;;;5050754;28;20120;-83
2021/08/28 04:13:29;;;;;;;9.70;5.28;;;14.10;99.90;;;;;;5046828;28;20386;-83
2021/08/28 04:15:55;;;;;;;13.07;4.70;;;14.10;99.90;;;;;;5034771;28;20025;-84
2021/08/28 04:18:21;;;;;;;11.15;4.75;;;14.10;99.90;;;;;;5033567;28;20025;-82
2021/08/28 04:20:46;;;;;;;26.95;5.95;;;14.10;99.90;;;;;;5033718;28;20033;-83
2021/08/28 04:23:12;;;;;;;15.80;4.93;;;14.10;99.90;;;;;;5034910;28;20033;-83
2021/08/28 04:25:38;;;;;;;12.80;4.20;;;14.10;99.90;;;;;;5034398;28;20607;-84
2021/08/28 04:28:04;;;;;;;17.17;4.40;;;14.10;99.90;;;;;;5033455;28;20030;-83
2021/08/28 04:30:29;;;;;;;15.15;4.70;;;14.10;99.90;;;;;;5033298;28;20025;-82
2021/08/28 04:32:56;;;;;;;10.55;4.20;;;14.10;99.90;;;;;;5033290;28;20022;-83
2021/08/28 04:35:21;;;;;;;15.20;4.57;;;14.10;99.90;;;;;;5051718;28;20462;-84
2021/08/28 04:37:47;;;;;;;12.43;5.35;;;14.00;99.90;;;;;;5054408;28;20096;-83
2021/08/28 04:40:13;;;;;;;21.92;5.65;;;14.10;99.90;;;;;;5054395;28;20512;-83
2021/08/28 04:42:38;;;;;;;16.90;4.93;;;14.10;99.90;;;;;;5053182;28;20025;-82
2021/08/28 04:45:06;;;;;;;13.40;4.28;;;14.00;99.90;;;;;;5040177;28;20545;-83
2021/08/28 04:47:31;;;;;;;15.82;4.82;;;14.10;99.90;;;;;;5034127;28;20025;-82
2021/08/28 04:49:57;;;;;;;9.90;4.28;;;14.20;99.90;;;;;;5034145;28;20029;-84
2021/08/28 04:52:23;;;;;;;11.05;4.13;;;14.00;99.90;;;;;;5034187;28;20053;-82
2021/08/28 04:54:48;;;;;;;17.48;3.75;;;14.10;99.90;;;;;;5041103;28;20024;-83
2021/08/28 04:57:14;;;;;;;25.83;4.38;;;14.10;99.90;;;;;;5053967;28;20036;-83
2021/08/28 04:59:39;;;;;;;9.80;3.35;;;14.10;99.90;;;;;;5053985;28;20146;-83
2021/08/28 05:02:05;;;;;;;6.97;3.35;;;14.10;99.90;;;;;;5053942;28;20029;-83
2021/08/28 05:04:31;;;;;;;17.92;3.97;;;14.10;99.90;;;;;;5051507;28;20032;-83
2021/08/28 05:06:57;;;;;;;11.82;3.80;;;14.10;99.90;;;;;;5033884;28;20164;-83
2021/08/28 05:09:23;;;;;;;13.30;3.65;;;14.20;99.90;;;;;;5032571;28;20033;-83
2021/08/28 05:11:48;;;;;;;14.85;3.50;;;14.10;99.90;;;;;;5033882;28;20056;-84
2021/08/28 05:14:14;;;;;;;10.93;3.83;;;14.10;99.90;;;;;;5033652;28;20029;-82
2021/08/28 05:16:40;;;;;;;8.23;3.40;;;14.10;99.90;;;;;;5049429;28;20036;-83
2021/08/28 05:19:05;;;;;;;10.48;3.30;;;14.10;99.90;;;;;;5052269;28;20031;-83
2021/08/28 05:21:31;;;;;;;14.25;3.47;;;14.00;99.90;;;;;;5042089;28;20021;-83
2021/08/28 05:23:57;;;;;;;13.27;3.22;;;14.10;99.90;;;;;;5032450;28;20438;-83
2021/08/28 05:26:23;;;;;;;8.95;3.50;;;14.20;99.90;;;;;;5043973;28;20036;-83
2021/08/28 05:28:48;;;;;;;9.85;3.00;;;14.20;99.90;;;;;;5032261;28;20075;-82
2021/08/28 05:31:14;;;;;;;11.77;3.28;;;14.20;99.90;;;;;;5033414;28;20029;-83
2021/08/28 05:33:39;;;;;;;8.93;3.05;;;14.20;99.90;;;;;;5033213;28;20033;-82
2021/08/28 05:36:05;;;;;;;8.88;3.47;;;14.20;99.90;;;;;;5039553;28;20029;-84
2021/08/28 05:38:31;;;;;;;11.00;2.97;;;14.20;99.90;;;;;;5051963;28;20362;-83
2021/08/28 05:40:57;;;;;;;10.82;2.97;;;14.20;99.90;;;;;;5051931;28;20031;-83
2021/08/28 05:43:23;;;;;;;10.90;2.75;;;14.30;99.90;;;;;;5053228;28;20040;-82
2021/08/28 05:45:48;;;;;;;10.25;2.50;;;14.30;99.90;;;;;;5050210;28;20398;-83
2021/08/28 05:48:14;;;;;;;8.02;2.78;;;14.30;99.90;;;;;;5031730;28;20504;-83
2021/08/28 05:50:39;;;;;;;13.82;2.55;;;14.30;99.90;;;;;;5033051;28;20509;-83
2021/08/28 05:53:05;;;;;;;6.30;2.10;;;14.40;99.90;;;;;;5033160;28;20100;-83
2021/08/28 05:55:31;;;;;;;9.18;2.85;;;14.40;99.90;;;;;;5032825;28;20032;-84
2021/08/28 05:57:56;;;;;;;7.90;2.25;;;14.40;99.90;;;;;;5048614;28;20029;-83
2021/08/28 06:00:22;;;;;;;10.40;1.95;;;14.40;99.90;;;;;;5052894;28;20513;-83
2021/08/28 06:02:47;;;;;;;11.25;2.00;;;14.40;99.90;;;;;;5050612;28;20091;-85
2021/08/28 06:05:14;;;;;;;11.45;2.55;;;14.40;99.90;;;;;;5059325;28;20035;-83
2021/08/28 06:07:39;;;;;;;13.00;2.17;;;14.40;99.90;;;;;;5040118;28;20117;-82
2021/08/28 06:10:06;;;;;;;14.10;2.85;;;14.40;99.90;;;;;;5031180;28;20120;-83
2021/08/28 06:12:34;;;;;;;9.02;2.35;;;14.30;99.90;;;;;;5031351;28;20533;-83
2021/08/28 06:14:59;;;;;;;17.27;3.65;;;14.30;99.90;;;;;;5032320;28;20040;-83
2021/08/28 06:17:25;;;;;;;16.17;2.72;;;14.30;99.90;;;;;;5038069;28;20528;-82
2021/08/28 06:19:51;;;;;;;4.07;1.88;;;14.30;99.90;;;;;;5050608;28;20052;-83
2021/08/28 06:22:16;;;;;;;7.30;2.25;;;14.30;99.90;;;;;;5052342;28;20031;-83
2021/08/28 06:24:42;;;;;;;13.43;1.95;;;14.50;99.90;;;;;;5050757;28;20036;-83
2021/08/28 06:27:08;;;;;;;5.18;1.55;;;14.50;99.90;;;;;;5051213;28;20036;-82
2021/08/28 06:29:34;;;;;;;13.68;2.28;;;14.60;99.90;;;;;;5032247;28;20026;-83
2021/08/28 06:32:00;;;;;;;10.02;2.05;;;14.80;99.90;;;;;;5030998;28;20171;-83
2021/08/28 06:34:26;;;;;;;7.28;1.88;;;14.80;99.90;;;;;;5030516;28;20104;-83
2021/08/28 06:36:52;;;;;;;16.20;2.95;;;14.80;99.90;;;;;;5032229;28;20122;-83
2021/08/28 06:39:18;;;;;;;4.90;1.75;;;14.80;99.90;;;;;;5047577;28;20536;-83
2021/08/28 06:41:43;;;;;;;12.02;2.55;;;14.70;99.90;;;;;;5052006;28;20027;-82
2021/08/28 06:44:09;;;;;;;6.45;1.92;;;14.70;99.90;;;;;;5051798;28;20021;-83
2021/08/28 06:46:34;;;;;;;6.85;1.80;;;14.60;99.90;;;;;;5051884;28;20481;-83
2021/08/28 06:49:00;;;;;;;7.03;2.28;;;14.70;99.90;;;;;;5041293;28;20502;-83
2021/08/28 06:51:26;;;;;;;16.15;2.00;;;14.70;99.90;;;;;;5031910;28;20032;-83
2021/08/28 06:53:51;;;;;;;11.63;2.80;;;14.60;99.90;;;;;;5024882;28;20474;-83
2021/08/28 06:56:17;;;;;;;4.45;1.85;;;14.70;99.90;;;;;;5039240;28;20409;-82
2021/08/28 06:58:43;;;;;;;6.57;1.85;;;14.80;99.90;;;;;;5045383;28;20028;-82
2021/08/28 07:01:08;;;;;;;5.90;1.67;;;14.70;99.90;;;;;;5047141;28;20106;-83
2021/08/28 07:03:34;;;;;;;4.47;2.25;;;14.80;99.90;;;;;;5047738;28;20028;-82
2021/08/28 07:06:00;;;;;;;6.53;1.63;;;14.80;99.90;;;;;;5047204;28;20025;-82
2021/08/28 07:08:25;;;;;;;6.38;1.67;;;14.80;99.90;;;;;;5046856;28;20033;-82
2021/08/28 07:10:51;;;;;;;7.80;1.63;;;14.80;99.90;;;;;;5035047;28;20080;-83
2021/08/28 07:13:17;;;;;;;11.32;2.05;;;14.80;99.90;;;;;;5030819;28;20017;-81
2021/08/28 07:15:43;;;;;;;5.78;1.70;;;14.80;99.90;;;;;;5030065;28;20566;-82
2021/08/28 07:18:09;;;;;;;3.53;1.63;;;14.80;99.90;;;;;;5030565;28;20509;-83
2021/08/28 07:20:35;;;;;;;3.67;1.50;;;14.90;99.90;;;;;;5031678;28;20425;-81
2021/08/28 07:23:01;;;;;;;5.45;1.70;;;14.90;99.90;;;;;;5031748;28;20603;-81
2021/08/28 07:25:27;;;;;;;6.78;1.75;;;15.00;99.90;;;;;;5031168;28;20112;-82
2021/08/28 07:27:53;;;;;;;5.05;1.65;;;15.00;99.90;;;;;;5031565;28;20120;-81
2021/08/28 07:30:19;;;;;;;10.90;1.88;;;14.90;99.90;;;;;;5030067;28;20025;-82
2021/08/28 07:32:44;;;;;;;4.93;1.45;;;15.10;99.90;;;;;;5045846;28;20112;-82
2021/08/28 07:35:10;;;;;;;5.05;1.52;;;15.30;99.90;;;;;;5061721;28;20028;-82
2021/08/28 07:37:36;;;;;;;5.90;1.77;;;15.10;99.90;;;;;;5062130;28;20071;-81
2021/08/28 07:40:05;;;;;;;7.40;1.75;;;15.20;99.90;;;;;;5041812;28;20060;-82
2021/08/28 07:42:31;;;;;;;6.00;1.27;;;15.20;99.90;;;;;;5031581;28;20497;-82
2021/08/28 07:44:57;;;;;;;5.45;1.52;;;15.30;99.90;;;;;;5030314;28;20030;-82
2021/08/28 07:47:22;;;;;;;3.17;1.55;;;15.40;99.90;;;;;;5034933;28;20418;-82
2021/08/28 07:49:48;;;;;;;9.75;2.28;;;15.50;99.90;;;;;;5044044;28;20486;-83
2021/08/28 07:52:17;;;;;;;4.30;1.73;;;15.60;99.90;;;;;;5035594;28;20024;-83
2021/08/28 07:54:43;;;;;;;7.22;1.50;;;15.60;99.90;;;;;;5035604;28;20478;-82
2021/08/28 07:57:09;;;;;;;5.35;1.55;;;15.70;99.90;;;;;;5033898;28;20033;-82
2021/08/28 07:59:34;;;;;;;3.90;1.40;;;15.70;99.90;;;;;;5034848;28;20040;-82
2021/08/28 08:02:00;;;;;;;4.57;1.50;;;15.70;99.90;;;;;;5035104;28;20033;-82
2021/08/28 08:04:25;;;;;;;6.43;1.77;;;15.70;99.90;;;;;;5034978;28;20034;-81
2021/08/28 08:06:51;;;;;;;4.38;1.42;;;15.60;99.90;;;;;;5034874;28;20385;-81
2021/08/28 08:09:17;;;;;;;9.20;1.80;;;15.70;99.90;;;;;;5034793;28;20029;-81
2021/08/28 08:11:42;;;;;;;4.80;1.25;;;15.70;99.90;;;;;;5048407;28;20063;-81
2021/08/28 08:14:08;;;;;;;15.52;1.42;;;15.70;99.90;;;;;;5053369;28;20025;-81
2021/08/28 08:16:34;;;;;;;4.13;1.17;;;15.70;99.90;;;;;;5054792;28;20029;-82
2021/08/28 08:18:59;;;;;;;6.65;1.60;;;15.80;99.90;;;;;;5053355;28;20021;-81
2021/08/28 08:21:25;;;;;;;13.05;1.52;;;15.80;99.90;;;;;;5037438;28;20026;-82
2021/08/28 08:23:50;;;;;;;3.70;1.20;;;15.90;99.90;;;;;;5034558;28;20030;-81
2021/08/28 08:26:16;;;;;;;4.18;1.35;;;16.00;99.90;;;;;;5034524;28;20033;-81
2021/08/28 08:28:41;;;;;;;3.65;1.35;;;16.00;99.90;;;;;;5033393;28;20064;-81
2021/08/28 08:31:07;;;;;;;1.55;1.10;;;16.10;99.90;;;;;;5033777;28;20036;-80
2021/08/28 08:33:33;;;;;;;2.72;1.00;;;16.20;99.90;;;;;;5033313;28;20444;-81
2021/08/28 08:35:58;;;;;;;2.58;1.25;;;16.30;99.90;;;;;;5034341;28;20137;-83
2021/08/28 08:38:24;;;;;;;5.72;1.58;;;16.30;99.90;;;;;;5033160;28;20026;-81
2021/08/28 08:40:50;;;;;;;7.82;1.30;;;16.30;99.90;;;;;;5040485;28;20158;-81
2021/08/28 08:43:16;;;;;;;3.67;1.38;;;16.20;99.90;;;;;;5054199;28;20021;-81
2021/08/28 08:45:44;;;;;;;6.13;1.67;;;16.10;99.90;;;;;;5052797;28;20485;-80
2021/08/28 08:48:11;;;;;;;6.93;1.38;;;16.10;99.90;;;;;;5054092;28;20515;-82
2021/08/28 08:50:37;;;;;;;8.48;1.67;;;16.10;99.90;;;;;;5052199;28;20088;-80
2021/08/28 08:53:05;;;;;;;4.68;1.30;;;16.20;99.90;;;;;;5032937;28;20052;-81
2021/08/28 08:55:32;;;;;;;5.05;1.85;;;16.30;99.90;;;;;;5033746;28;20436;-81
2021/08/28 08:57:59;;;;;;;13.85;1.92;;;16.30;99.90;;;;;;5033992;28;20014;-83
2021/08/28 09:00:25;;;;;;;3.40;1.40;;;16.30;99.90;;;;;;5034051;28;20049;-81
2021/08/28 09:02:51;;;;;;;3.38;1.17;;;16.20;99.90;;;;;;5049688;28;20033;-82
2021/08/28 09:05:17;;;;;;;4.22;1.58;;;16.10;99.90;;;;;;5053670;28;20032;-82
2021/08/28 09:07:43;;;;;;;11.38;1.70;;;16.10;99.90;;;;;;5053763;28;20029;-81
2021/08/28 09:10:09;;;;;;;2.60;1.30;;;16.10;99.90;;;;;;5051145;28;20120;-82
2021/08/28 09:12:37;;;;;;;4.68;1.33;;;16.30;99.90;;;;;;5034112;28;20124;-82
2021/08/28 09:15:04;;;;;;;3.88;1.98;;;16.40;99.90;;;;;;5033555;28;20159;-82
2021/08/28 09:17:30;;;;;;;6.88;1.17;;;16.60;99.90;;;;;;5033677;28;20014;-82
2021/08/28 09:19:56;;;;;;;5.13;1.15;;;16.70;99.90;;;;;;5033567;28;20021;-81
2021/08/28 09:22:25;;;;;;;4.57;1.40;;;16.80;99.90;;;;;;5045664;28;20033;-84
2021/08/28 09:24:51;;;;;;;3.85;1.33;;;16.50;99.90;;;;;;5053084;28;20486;-84
2021/08/28 09:27:36;;;;;;;4.70;0.80;;;16.50;99.90;;;;;;5053625;28;20029;-83
2021/08/28 09:30:14;;;;;;;0.80;0.80;;;16.40;99.90;;;;;;5052032;28;20509;-83
2021/08/28 09:32:45;;;;;;;4.97;1.40;;;16.50;99.90;;;;;;5041313;28;20112;-83
2021/08/28 09:35:11;;;;;;;8.52;1.20;;;16.60;99.90;;;;;;5033102;28;20022;-84
2021/08/28 09:37:37;;;;;;;1.85;1.02;;;16.60;99.90;;;;;;5032618;28;20033;-84
2021/08/28 09:40:05;;;;;;;5.45;1.50;;;16.70;99.90;;;;;;5032039;28;20030;-82
2021/08/28 09:42:30;;;;;;;4.80;1.40;;;16.70;99.90;;;;;;5040626;28;20035;-82
2021/08/28 09:44:56;;;;;;;1.95;0.95;;;16.60;99.90;;;;;;5052773;28;20489;-82
2021/08/28 09:47:24;;;;;;;9.98;1.08;;;16.60;99.90;;;;;;5053046;28;20024;-82
2021/08/28 09:49:51;;;;;;;3.75;1.02;;;16.50;99.90;;;;;;5051607;28;20036;-84
2021/08/28 09:52:22;;;;;;;2.78;1.25;;;16.50;99.90;;;;;;5049781;28;20498;-82
2021/08/28 09:54:49;;;;;;;5.97;1.38;;;16.50;99.90;;;;;;5036110;28;20063;-81
2021/08/28 09:57:14;;;;;;;3.88;1.20;;;16.60;99.90;;;;;;5040177;28;20037;-82
2021/08/28 09:59:42;;;;;;;5.43;1.50;;;16.50;99.90;;;;;;5046754;28;20079;-82
2021/08/28 10:02:14;;;;;;;5.20;1.50;;;16.50;99.90;;;;;;5047341;28;20056;-81
2021/08/28 10:04:54;;;;;;;1.90;1.35;;;16.50;99.90;;;;;;5048012;28;20037;-81
2021/08/28 10:07:25;;;;;;;3.65;1.40;;;16.50;99.90;;;;;;5047732;28;20025;-82
2021/08/28 10:09:56;;;;;;;4.38;1.70;;;16.50;99.90;;;;;;5047555;28;20028;-83
2021/08/28 10:12:22;;;;;;;3.80;2.20;;;16.40;99.90;;;;;;5048531;28;20100;-82
2021/08/28 10:14:50;;;;;;;2.90;1.85;;;16.30;99.90;;;;;;5048112;28;20096;-82
2021/08/28 10:17:17;;;;;;;3.50;1.95;;;16.30;99.90;;;;;;5053255;28;20374;-81
2021/08/28 10:19:44;;;;;;;14.82;2.35;;;16.30;99.90;;;;;;5045765;28;20086;-83
2021/08/28 10:22:13;;;;;;;6.65;2.05;;;16.30;99.90;;;;;;5048237;28;20025;-82
2021/08/28 10:24:43;;;;;;;3.90;1.70;;;16.30;99.90;;;;;;5048003;28;20029;-83
2021/08/28 10:27:08;;;;;;;8.82;2.53;;;16.30;99.90;;;;;;5046511;28;20033;-82
2021/08/28 10:29:35;;;;;;;5.65;1.67;;;16.30;99.90;;;;;;5046908;28;20104;-82
2021/08/28 10:32:00;;;;;;;5.55;2.33;;;16.30;99.90;;;;;;5047040;28;20025;-82
2021/08/28 10:34:26;;;;;;;4.13;1.52;;;16.20;99.90;;;;;;5047875;28;20025;-82
2021/08/28 10:36:52;;;;;;;2.47;1.73;;;16.30;99.90;;;;;;5047977;28;20958;-82
2021/08/28 10:39:19;;;;;;;15.75;2.67;;;16.00;99.90;;;;;;5045593;28;20067;-83
2021/08/28 10:41:46;;;;;;;7.25;2.60;;;16.00;99.90;;;;;;5046869;28;20112;-83
2021/08/28 10:44:11;;;;;;;8.57;2.70;;;16.00;99.90;;;;;;5047824;28;20025;-85
2021/08/28 10:46:41;;;;;;;5.60;2.70;;;15.90;99.90;;;;;;5047934;28;20040;-82
2021/08/28 10:49:09;;;;;;;8.05;2.95;;;15.90;99.90;;;;;;5046952;28;20021;-81
2021/08/28 10:51:38;;;;;;;11.73;2.88;;;16.00;99.90;;;;;;5047939;28;20885;-83
2021/08/28 10:54:05;;;;;;;7.85;2.95;;;16.10;99.90;;;;;;5047526;28;20040;-82
2021/08/28 10:56:51;;;;;;;13.52;3.20;;;16.20;99.90;;;;;;5042442;28;20067;-82
2021/08/28 10:59:34;;;;;;;6.22;2.45;;;16.50;99.90;;;;;;5046605;28;20032;-83
2021/08/28 11:02:13;;;;;;;6.00;2.53;;;16.70;99.90;;;;;;5048371;28;20064;-81
2021/08/28 11:04:44;;;;;;;7.47;2.63;;;16.80;99.90;;;;;;5046531;28;20025;-83
2021/08/28 11:07:19;;;;;;;3.75;2.38;;;17.00;99.90;;;;;;5047762;28;20047;-83
2021/08/28 11:10:06;;;;;;;4.95;2.00;;;17.20;99.90;;;;;;5046154;28;20044;-84
2021/08/28 11:12:42;;;;;;;5.07;2.35;;;17.40;99.90;;;;;;5039849;28;20655;-81
2021/08/28 11:15:34;;;;;;;4.95;2.35;;;17.60;99.90;;;;;;5046039;28;20145;-83
2021/08/28 11:18:05;;;;;;;5.22;2.00;;;17.90;99.90;;;;;;5045875;28;20685;-82
2021/08/28 11:20:35;;;;;;;5.32;2.30;;;18.00;99.90;;;;;;5047112;28;20021;-82
2021/08/28 11:23:05;;;;;;;5.30;2.50;;;18.20;99.90;;;;;;5052543;28;20055;-82
2021/08/28 11:25:34;;;;;;;4.60;2.67;;;18.50;99.90;;;;;;5050283;28;20396;-81
2021/08/28 11:28:00;;;;;;;4.25;2.13;;;18.80;99.90;;;;;;5048635;28;20028;-82
2021/08/28 11:30:44;;;;;;;3.92;1.88;;;19.30;99.90;;;;;;5051169;28;20021;-83
2021/08/28 11:33:11;;;;;;;7.03;1.95;;;19.60;99.90;;;;;;5051791;28;20017;-82
2021/08/28 11:35:41;;;;;;;2.63;1.80;;;19.50;99.90;;;;;;5048071;28;20053;-81
2021/08/28 11:38:08;;;;;;;5.20;2.13;;;19.20;99.90;;;;;;5052163;28;20029;-82
2021/08/28 11:40:36;;;;;;;3.92;2.22;;;18.60;99.90;;;;;;5052384;28;20107;-82
2021/08/28 11:43:04;;;;;;;4.55;2.03;;;18.30;99.90;;;;;;5051934;28;20485;-82
2021/08/28 11:45:40;;;;;;;6.18;2.22;;;18.00;99.90;;;;;;5051820;28;20021;-81
2021/08/28 11:48:11;;;;;;;3.92;1.92;;;17.90;99.90;;;;;;5052111;28;20036;-82
2021/08/28 11:50:37;;;;;;;2.20;1.40;;;17.90;99.90;;;;;;5050279;28;20082;-81
2021/08/28 11:53:04;;;;;;;2.45;1.70;;;17.90;99.90;;;;;;5050929;28;20021;-81
2021/08/28 11:55:34;;;;;;;5.30;1.55;;;17.90;99.90;;;;;;5040237;28;20057;-81
2021/08/28 11:58:12;;;;;;;2.35;1.63;;;18.00;99.90;;;;;;5048866;28;20021;-80
2021/08/28 12:00:38;;;;;;;3.58;1.55;;;17.80;99.90;;;;;;5043646;28;20082;-80
2021/08/28 12:03:06;;;;;;;3.15;2.03;;;17.90;99.90;;;;;;5051623;28;20029;-80
2021/08/28 12:05:33;;;;;;;4.78;1.98;;;17.70;99.90;;;;;;5051415;28;20378;-81
2021/08/28 12:07:59;;;;;;;5.88;2.60;;;17.60;99.90;;;;;;5051334;28;20032;-81
2021/08/28 12:10:25;;;;;;;4.20;1.95;;;17.50;99.90;;;;;;5051388;28;20048;-81
2021/08/28 12:12:58;;;;;;;7.35;2.47;;;17.60;99.90;;;;;;5050216;28;20075;-81
2021/08/28 12:15:24;;;;;;;5.90;2.20;;;17.60;99.90;;;;;;5051455;28;20512;-81
2021/08/28 12:17:51;;;;;;;7.65;2.55;;;17.40;99.90;;;;;;5050395;28;20025;-80
2021/08/28 12:20:24;;;;;;;5.20;2.80;;;17.40;99.90;;;;;;5051383;28;20040;-81
2021/08/28 12:22:51;;;;;;;;;;;17.30;99.90;;;;;;5050393;28;20516;-80
2021/08/28 12:25:17;;;;;;;7.07;2.10;;;17.30;99.90;;;;;;5051116;28;19986;-80
2021/08/28 12:27:45;;;;;;;4.30;2.30;;;17.50;99.90;;;;;;5048183;28;20039;-80
2021/08/28 12:30:11;;;;;;;4.30;2.38;;;17.70;99.90;;;;;;5039067;28;20063;-80
2021/08/28 12:32:37;;;;;;;4.10;1.90;;;17.80;99.90;;;;;;5050747;28;20096;-81
2021/08/28 12:35:02;;;;;;;3.85;2.60;;;18.00;99.90;;;;;;5049654;28;20120;-81
2021/08/28 12:37:32;;;;;;;4.60;2.95;;;18.00;99.90;;;;;;5050327;28;20108;-80
2021/08/28 12:40:00;;;;;;;6.40;2.60;;;18.00;99.90;;;;;;5050344;28;20025;-80
2021/08/28 12:42:31;;;;;;;3.63;2.35;;;18.00;99.90;;;;;;5050788;28;20029;-81
2021/08/28 12:44:59;;;;;;;3.95;2.65;;;18.10;99.90;;;;;;5049379;28;20486;-80